Chikyu — JRAJ — position and weather

sailwx.info

Track history (hours):
 
Tides and Currents Weather Stations Pressure Air Temp Water Temp Dewpoint Dewpoint Depression Visibility Wind Speed Wind Dir Waves Ship Positions

Oceanographic research ship Chikyu (Japan)

Last reported at 2018-Aug-31 23:46 UTC. Time now 2018-Dec-12 17:12 UTC.
Position N 35°02' E 138°31'.
Warning: this ship's position is months out of date.

Length 210 m; beam 38 m.

Type: Other ship. MMSI: 432522000.

Date/timePositionNaut miles runAvg speedWind from/ knotsBaromVisibWave heightAir tempDewpointWater temp
2018-Aug-31 23:46N 35°02' E 138°31'  
2018-Aug-28 23:06N 35°02' E 138°32'0 0.0
2018-Aug-28 22:56N 35°02' E 138°32'1 0.0
2018-Aug-27 01:43N 35°02' E 138°33'1 2.7
2018-Aug-27 01:20N 35°02' E 138°32'0 0.0
2018-Aug-27 01:02N 35°02' E 138°32'0 0.0
2018-Aug-27 00:56N 35°02' E 138°32'0 0.0
2018-Aug-27 00:31N 35°02' E 138°32'0 0.0
2018-Aug-27 00:02N 35°02' E 138°32'0 0.0
2018-Aug-27 00:00N 35°02' E 138°32'0 0.0
2018-Aug-26 23:30N 35°02' E 138°32'0 0.0
2018-Aug-26 22:59N 35°02' E 138°32'0 0.0
2018-Aug-26 22:31N 35°02' E 138°32'0 0.2
2018-Aug-26 22:03N 35°02' E 138°32'26 3.6
2018-Aug-26 14:57N 34°37' E 138°27'6 7.1
2018-Aug-26 14:04N 34°31' E 138°24'0 7.7
2018-Aug-26 14:00N 34°31' E 138°24'6 6.7
2018-Aug-26 13:03N 34°25' E 138°21'  
2018-Aug-22 11:41N 35°04' E 138°49'0 0.3
2018-Aug-22 11:31N 35°04' E 138°49'0 0.3
2018-Aug-22 11:03N 35°04' E 138°48'0 0.0
2018-Aug-22 11:00N 35°04' E 138°48'0 0.1
2018-Aug-22 10:29N 35°04' E 138°48'  
Track history (hours):
 
Tides and Currents Weather Stations Pressure Air Temp Water Temp Dewpoint Dewpoint Depression Visibility Wind Speed Wind Dir Waves Ship Positions

Oceanographic research ship Chikyu (Japan)

Last reported at 2018-Aug-31 23:46 UTC. Time now 2018-Dec-12 17:12 UTC.
Position N 35°02' E 138°31'.
Warning: this ship's position is months out of date.

Length 210 m; beam 38 m.

Type: Other ship. MMSI: 432522000.

Date/timePositionNaut miles runAvg speedWind from/ knotsBaromVisibWave heightAir tempDewpointWater temp
2018-Aug-31 23:46N 35°02' E 138°31'  
2018-Aug-28 23:06N 35°02' E 138°32'0 0.0
2018-Aug-28 22:56N 35°02' E 138°32'1 0.0
2018-Aug-27 01:43N 35°02' E 138°33'1 2.7
2018-Aug-27 01:20N 35°02' E 138°32'0 0.0
2018-Aug-27 01:02N 35°02' E 138°32'0 0.0
2018-Aug-27 00:56N 35°02' E 138°32'0 0.0
2018-Aug-27 00:31N 35°02' E 138°32'0 0.0
2018-Aug-27 00:02N 35°02' E 138°32'0 0.0
2018-Aug-27 00:00N 35°02' E 138°32'0 0.0
2018-Aug-26 23:30N 35°02' E 138°32'0 0.0
2018-Aug-26 22:59N 35°02' E 138°32'0 0.0
2018-Aug-26 22:31N 35°02' E 138°32'0 0.2
2018-Aug-26 22:03N 35°02' E 138°32'26 3.6
2018-Aug-26 14:57N 34°37' E 138°27'6 7.1
2018-Aug-26 14:04N 34°31' E 138°24'0 7.7
2018-Aug-26 14:00N 34°31' E 138°24'6 6.7
2018-Aug-26 13:03N 34°25' E 138°21'  
2018-Aug-22 11:41N 35°04' E 138°49'0 0.3
2018-Aug-22 11:31N 35°04' E 138°49'0 0.3
2018-Aug-22 11:03N 35°04' E 138°48'0 0.0
2018-Aug-22 11:00N 35°04' E 138°48'0 0.1
2018-Aug-22 10:29N 35°04' E 138°48'  

Dump ship's entire track history